Time;durP1;ratioP1;P1;durP2;ratioP2;P2;SDS_P1;SDS_P2;PMS_P1;PMS_P2;Temp;Humidity;BMP_temperature;BMP_pressure;BME280_temperature;BME280_humidity;BME280_pressure;Samples;Min_cycle;Max_cycle;Signal;HPM_P1;HPM_P2
2021/08/31 00:00:38;;;;;;;28.23;15.50;;;14.90;99.20;;;;;;5033647;28;20064;-57
2021/08/31 00:03:05;;;;;;;23.42;14.57;;;14.90;99.20;;;;;;5050172;28;20615;-58
2021/08/31 00:05:31;;;;;;;23.17;14.73;;;14.90;99.20;;;;;;5040329;28;20044;-59
2021/08/31 00:07:57;;;;;;;25.65;14.40;;;14.90;99.30;;;;;;5023391;28;20037;-58
2021/08/31 00:10:23;;;;;;;27.90;15.00;;;14.80;99.20;;;;;;5020475;28;20416;-57
2021/08/31 00:12:49;;;;;;;25.08;14.93;;;14.80;99.30;;;;;;5040894;28;20428;-56
2021/08/31 00:15:15;;;;;;;27.23;14.02;;;14.80;99.20;;;;;;5057169;28;20041;-54
2021/08/31 00:17:40;;;;;;;23.85;14.45;;;14.80;99.20;;;;;;5056554;28;20404;-54
2021/08/31 00:20:08;;;;;;;22.35;14.38;;;14.80;99.30;;;;;;5037862;28;20450;-54
2021/08/31 00:22:35;;;;;;;23.15;14.55;;;14.80;99.30;;;;;;5019457;28;20051;-54
2021/08/31 00:25:07;;;;;;;25.17;14.63;;;14.80;99.30;;;;;;5053663;28;20051;-50
2021/08/31 00:27:33;;;;;;;21.38;14.07;;;14.70;99.30;;;;;;5043909;28;20041;-54
2021/08/31 00:29:59;;;;;;;24.33;14.73;;;14.70;99.30;;;;;;5053564;28;20114;-51
2021/08/31 00:32:24;;;;;;;22.52;14.07;;;14.70;99.30;;;;;;5051707;28;20041;-53
2021/08/31 00:34:51;;;;;;;22.30;14.18;;;14.70;99.30;;;;;;5030778;28;20053;-57
2021/08/31 00:37:17;;;;;;;20.98;14.40;;;14.70;99.30;;;;;;5036994;28;20030;-51
2021/08/31 00:39:43;;;;;;;22.77;14.50;;;14.70;99.30;;;;;;5053918;28;20039;-56
2021/08/31 00:42:09;;;;;;;24.98;14.80;;;14.70;99.30;;;;;;5029617;28;20402;-56
2021/08/31 00:44:35;;;;;;;25.63;14.40;;;14.60;99.40;;;;;;5059144;28;20500;-56
2021/08/31 00:47:07;;;;;;;23.40;14.13;;;14.60;99.40;;;;;;5055948;28;20508;-58
2021/08/31 00:49:33;;;;;;;21.80;14.00;;;14.60;99.30;;;;;;5039900;28;20041;-58
2021/08/31 00:52:00;;;;;;;22.70;14.13;;;14.60;99.40;;;;;;5044219;28;20056;-57
2021/08/31 00:54:27;;;;;;;23.95;14.27;;;14.60;99.40;;;;;;5059230;28;20159;-55
2021/08/31 00:56:54;;;;;;;22.55;13.77;;;14.60;99.50;;;;;;5041039;28;20037;-55
2021/08/31 00:59:23;;;;;;;19.27;13.18;;;14.50;99.50;;;;;;5057952;28;20093;-55
2021/08/31 01:01:50;;;;;;;25.17;14.35;;;14.50;99.50;;;;;;5038748;28;20160;-56
2021/08/31 01:04:19;;;;;;;24.33;14.85;;;14.50;99.50;;;;;;5057291;28;20041;-55
2021/08/31 01:06:46;;;;;;;25.20;15.43;;;14.50;99.50;;;;;;5058330;28;20588;-55
2021/08/31 01:09:12;;;;;;;24.45;14.75;;;14.50;99.70;;;;;;5058195;28;20037;-54
2021/08/31 01:11:38;;;;;;;25.40;15.95;;;14.50;99.50;;;;;;5027027;28;20132;-54
2021/08/31 01:14:06;;;;;;;24.25;15.82;;;14.50;99.60;;;;;;5053695;28;20120;-54
2021/08/31 01:16:41;;;;;;;25.92;17.23;;;14.50;99.50;;;;;;5060111;28;20028;-54
2021/08/31 01:19:07;;;;;;;28.42;17.70;;;14.50;99.60;;;;;;5024778;28;20034;-57
2021/08/31 01:21:33;;;;;;;29.88;19.00;;;14.50;99.60;;;;;;5053663;28;20045;-57
2021/08/31 01:23:59;;;;;;;30.77;18.40;;;14.50;99.60;;;;;;5056470;28;20051;-57
2021/08/31 01:26:27;;;;;;;30.75;20.38;;;14.50;99.70;;;;;;5048073;28;20162;-57
2021/08/31 01:28:55;;;;;;;33.35;20.08;;;14.40;99.80;;;;;;5057639;28;20036;-59
2021/08/31 01:31:21;;;;;;;35.20;21.05;;;14.40;99.70;;;;;;5059568;28;20119;-58
2021/08/31 01:33:47;;;;;;;34.63;20.63;;;14.50;99.80;;;;;;5058192;28;20072;-55
2021/08/31 01:36:25;;;;;;;31.77;20.60;;;14.40;99.80;;;;;;5035836;28;20044;-58
2021/08/31 01:38:54;;;;;;;32.10;21.08;;;14.50;99.90;;;;;;5008172;28;20037;-54
2021/08/31 01:41:20;;;;;;;32.95;19.48;;;14.40;99.90;;;;;;5056928;28;20044;-55
2021/08/31 01:43:46;;;;;;;34.80;20.38;;;14.50;99.90;;;;;;5059321;28;20041;-55
2021/08/31 01:46:22;;;;;;;32.70;20.17;;;14.50;99.90;;;;;;5046976;28;20037;-57
2021/08/31 01:48:48;;;;;;;30.48;19.50;;;14.50;99.90;;;;;;5047560;28;20124;-58
2021/08/31 01:51:14;;;;;;;34.10;19.63;;;14.40;99.90;;;;;;5040879;28;20051;-58
2021/08/31 01:53:40;;;;;;;36.13;20.40;;;14.40;99.90;;;;;;5061137;28;20041;-57
2021/08/31 01:56:07;;;;;;;32.33;19.17;;;14.40;99.90;;;;;;5043532;28;20038;-58
2021/08/31 01:58:34;;;;;;;32.90;19.80;;;14.40;99.90;;;;;;5008653;28;20040;-59
2021/08/31 02:00:59;;;;;;;29.83;18.98;;;14.30;99.90;;;;;;5059010;28;20044;-57
2021/08/31 02:03:26;;;;;;;30.52;18.27;;;14.30;99.90;;;;;;5047150;28;20060;-57
2021/08/31 02:05:57;;;;;;;33.38;19.00;;;14.30;99.90;;;;;;5020674;28;20040;-54
2021/08/31 02:08:23;;;;;;;26.55;18.88;;;14.30;99.90;;;;;;5048851;28;20439;-55
2021/08/31 02:10:49;;;;;;;27.10;17.08;;;14.30;99.90;;;;;;5030453;28;20033;-52
2021/08/31 02:13:15;;;;;;;32.97;18.30;;;14.30;99.90;;;;;;5035783;28;20044;-55
2021/08/31 02:15:42;;;;;;;30.80;17.67;;;14.40;99.90;;;;;;5014139;28;20048;-53
2021/08/31 02:18:07;;;;;;;29.83;17.42;;;14.40;99.90;;;;;;5001475;28;20524;-52
2021/08/31 02:20:34;;;;;;;24.85;16.67;;;14.40;99.90;;;;;;5042408;28;20037;-54
2021/08/31 02:23:00;;;;;;;27.65;16.38;;;14.30;99.90;;;;;;5030526;28;20246;-51
2021/08/31 02:25:26;;;;;;;23.70;14.90;;;14.30;99.90;;;;;;5051663;28;20120;-54
2021/08/31 02:27:51;;;;;;;30.58;15.30;;;14.40;99.90;;;;;;5049817;28;20029;-54
2021/08/31 02:30:17;;;;;;;31.02;16.10;;;14.40;99.90;;;;;;5046115;28;20033;-53
2021/08/31 02:32:46;;;;;;;30.75;15.77;;;14.40;99.90;;;;;;5041891;28;20033;-54
2021/08/31 02:35:11;;;;;;;25.77;15.25;;;14.40;99.90;;;;;;5042690;28;20072;-55
2021/08/31 02:37:37;;;;;;;26.08;14.93;;;14.40;99.90;;;;;;5053135;28;20044;-56
2021/08/31 02:40:05;;;;;;;27.55;14.85;;;14.40;99.90;;;;;;5050291;28;20037;-57
2021/08/31 02:42:31;;;;;;;28.17;15.70;;;14.30;99.90;;;;;;5058211;28;20088;-56
2021/08/31 02:44:57;;;;;;;28.58;15.23;;;14.30;99.90;;;;;;5038223;28;20071;-55
2021/08/31 02:47:23;;;;;;;25.90;13.52;;;14.30;99.90;;;;;;5031696;28;20045;-57
2021/08/31 02:49:50;;;;;;;29.92;14.32;;;14.40;99.90;;;;;;5051564;28;20056;-56
2021/08/31 02:52:17;;;;;;;28.88;14.73;;;14.40;99.90;;;;;;5024879;28;20052;-56
2021/08/31 02:54:43;;;;;;;28.95;13.77;;;14.40;99.90;;;;;;5036507;28;20386;-57
2021/08/31 02:57:08;;;;;;;26.20;13.40;;;14.40;99.90;;;;;;5046433;28;20041;-55
2021/08/31 02:59:34;;;;;;;27.35;13.55;;;14.40;99.90;;;;;;5048610;28;20037;-55
2021/08/31 03:02:07;;;;;;;27.52;13.48;;;14.40;99.90;;;;;;5045874;28;20025;-53
2021/08/31 03:04:42;;;;;;;25.27;13.02;;;14.30;99.90;;;;;;5038993;28;20091;-55
2021/08/31 03:07:11;;;;;;;25.27;13.48;;;14.40;99.90;;;;;;5020664;28;20033;-57
2021/08/31 03:09:38;;;;;;;33.15;13.82;;;14.40;99.90;;;;;;5054062;28;20124;-55
2021/08/31 03:12:04;;;;;;;27.10;12.88;;;14.40;99.90;;;;;;5047166;28;20454;-59
2021/08/31 03:14:30;;;;;;;27.05;12.23;;;14.40;99.90;;;;;;5034753;28;20041;-57
2021/08/31 03:16:57;;;;;;;26.27;12.40;;;14.40;99.90;;;;;;5036930;28;20036;-58
2021/08/31 03:19:24;;;;;;;21.33;12.65;;;14.30;99.90;;;;;;5047573;28;20064;-59
2021/08/31 03:21:55;;;;;;;23.38;12.38;;;14.40;99.90;;;;;;5005453;28;20041;-58
2021/08/31 03:24:22;;;;;;;27.13;12.80;;;14.30;99.90;;;;;;5048358;28;20037;-58
2021/08/31 03:26:49;;;;;;;24.80;11.65;;;14.40;99.90;;;;;;5055690;28;20528;-57
2021/08/31 03:29:15;;;;;;;25.90;11.07;;;14.30;99.90;;;;;;5047057;28;20504;-53
2021/08/31 03:31:40;;;;;;;26.95;11.93;;;14.30;99.90;;;;;;5051647;28;20072;-59
2021/08/31 03:34:06;;;;;;;26.48;11.93;;;14.30;99.90;;;;;;5047527;28;20490;-59
2021/08/31 03:36:33;;;;;;;22.52;11.77;;;14.30;99.90;;;;;;5036619;28;20043;-59
2021/08/31 03:39:01;;;;;;;23.60;11.25;;;14.30;99.90;;;;;;5014557;28;20271;-59
2021/08/31 03:41:27;;;;;;;27.60;12.27;;;14.30;99.90;;;;;;4998241;28;20053;-59
2021/08/31 03:43:53;;;;;;;23.80;12.50;;;14.30;99.90;;;;;;5044227;28;20122;-58
2021/08/31 03:46:20;;;;;;;22.92;12.73;;;14.30;99.90;;;;;;4990593;28;20135;-54
2021/08/31 03:48:45;;;;;;;22.67;12.38;;;14.30;99.90;;;;;;5042355;28;20041;-54
2021/08/31 03:51:11;;;;;;;26.17;13.57;;;14.30;99.90;;;;;;5055676;28;20039;-54
2021/08/31 03:53:36;;;;;;;29.35;13.18;;;14.30;99.90;;;;;;5052729;28;20042;-54
2021/08/31 03:56:02;;;;;;;29.08;12.10;;;14.30;99.90;;;;;;5034402;28;20033;-54
2021/08/31 03:58:27;;;;;;;33.25;13.57;;;14.20;99.90;;;;;;5045690;28;20041;-54
2021/08/31 04:00:53;;;;;;;29.95;12.02;;;14.20;99.90;;;;;;5040630;28;20033;-54
2021/08/31 04:03:18;;;;;;;24.98;11.95;;;14.20;99.90;;;;;;5055722;28;20083;-57
2021/08/31 04:05:44;;;;;;;26.35;12.45;;;14.20;99.90;;;;;;5052919;28;20108;-54
2021/08/31 04:08:10;;;;;;;23.00;12.73;;;14.20;99.90;;;;;;5048604;28;20055;-52
2021/08/31 04:10:36;;;;;;;24.75;12.50;;;14.20;99.90;;;;;;5047135;28;20037;-55
2021/08/31 04:13:02;;;;;;;22.38;11.93;;;14.20;99.90;;;;;;5044370;28;20074;-52
2021/08/31 04:15:34;;;;;;;26.08;13.15;;;14.20;99.90;;;;;;5046081;28;20463;-58
2021/08/31 04:18:03;;;;;;;25.25;12.20;;;14.20;99.90;;;;;;5020477;28;20033;-59
2021/08/31 04:20:28;;;;;;;26.13;12.88;;;14.20;99.90;;;;;;5036908;28;20179;-57
2021/08/31 04:22:54;;;;;;;23.83;12.93;;;14.20;99.90;;;;;;5055249;28;20087;-58
2021/08/31 04:25:27;;;;;;;25.85;12.77;;;14.20;99.90;;;;;;5042779;28;20041;-57
2021/08/31 04:27:52;;;;;;;26.13;13.25;;;14.20;99.90;;;;;;5034643;28;20041;-58
2021/08/31 04:30:20;;;;;;;25.92;12.45;;;14.20;99.90;;;;;;5039854;28;20128;-58
2021/08/31 04:32:46;;;;;;;24.45;12.95;;;14.20;99.90;;;;;;5034416;28;20120;-58
2021/08/31 04:35:12;;;;;;;26.48;13.88;;;14.20;99.90;;;;;;5009441;28;20515;-58
2021/08/31 04:37:38;;;;;;;24.00;13.20;;;14.20;99.90;;;;;;5048752;28;20375;-59
2021/08/31 04:40:04;;;;;;;27.50;13.20;;;14.20;99.90;;;;;;5043749;28;20092;-58
2021/08/31 04:42:30;;;;;;;26.20;12.93;;;14.20;99.90;;;;;;5017981;28;20512;-56
2021/08/31 04:44:56;;;;;;;26.17;12.93;;;14.20;99.90;;;;;;5061182;28;20041;-55
2021/08/31 04:47:23;;;;;;;24.30;12.65;;;14.20;99.90;;;;;;5056160;28;20056;-57
2021/08/31 04:49:48;;;;;;;30.10;13.43;;;14.20;99.90;;;;;;5057316;28;20075;-54
2021/08/31 04:52:14;;;;;;;23.77;11.88;;;14.20;99.90;;;;;;5058934;28;20098;-55
2021/08/31 04:54:40;;;;;;;22.65;11.80;;;14.20;99.90;;;;;;5036496;28;20044;-57
2021/08/31 04:57:06;;;;;;;21.60;12.68;;;14.20;99.90;;;;;;5040508;28;20474;-54
2021/08/31 04:59:32;;;;;;;24.63;12.35;;;14.20;99.90;;;;;;5033918;28;20040;-54
2021/08/31 05:01:57;;;;;;;23.00;12.50;;;14.10;99.90;;;;;;5052393;28;20482;-54
2021/08/31 05:04:28;;;;;;;26.52;12.63;;;14.20;99.90;;;;;;5056048;28;20378;-57
2021/08/31 05:06:58;;;;;;;23.05;12.73;;;14.10;99.90;;;;;;5040001;28;20114;-58
2021/08/31 05:09:24;;;;;;;26.63;13.48;;;14.20;99.90;;;;;;5055254;28;20036;-56
2021/08/31 05:11:50;;;;;;;28.75;12.65;;;14.10;99.90;;;;;;5058227;28;20036;-54
2021/08/31 05:14:15;;;;;;;22.27;12.52;;;14.20;99.90;;;;;;5058117;28;20098;-54
2021/08/31 05:16:41;;;;;;;26.85;12.25;;;14.10;99.90;;;;;;5056546;28;20123;-56
2021/08/31 05:19:07;;;;;;;25.50;13.23;;;14.20;99.90;;;;;;5026753;28;20040;-55
2021/08/31 05:21:34;;;;;;;26.08;13.18;;;14.20;99.90;;;;;;5046161;28;20038;-54
2021/08/31 05:24:00;;;;;;;24.60;13.23;;;14.20;99.90;;;;;;5021897;28;20127;-51
2021/08/31 05:26:25;;;;;;;32.92;13.45;;;14.20;99.90;;;;;;5055691;28;20048;-54
2021/08/31 05:28:51;;;;;;;28.48;13.75;;;14.20;99.90;;;;;;5058315;28;20121;-55
2021/08/31 05:31:17;;;;;;;24.33;12.68;;;14.20;99.90;;;;;;5056691;28;20045;-56
2021/08/31 05:33:43;;;;;;;25.48;13.25;;;14.30;99.90;;;;;;5040672;28;20037;-58
2021/08/31 05:36:09;;;;;;;23.90;12.80;;;14.30;99.90;;;;;;5038254;28;20127;-57
2021/08/31 05:38:35;;;;;;;21.85;13.30;;;14.30;99.90;;;;;;5054853;28;20045;-56
2021/08/31 05:41:01;;;;;;;23.38;12.88;;;14.20;99.90;;;;;;5052402;28;20041;-57
2021/08/31 05:43:28;;;;;;;26.92;13.75;;;14.20;99.90;;;;;;5058978;28;20068;-58
2021/08/31 05:45:54;;;;;;;22.88;12.75;;;14.30;99.90;;;;;;5026982;28;20059;-58
2021/08/31 05:48:20;;;;;;;29.00;13.35;;;14.30;99.90;;;;;;5041348;28;20045;-54
2021/08/31 05:50:46;;;;;;;27.40;13.10;;;14.30;99.90;;;;;;5045422;28;20041;-53
2021/08/31 05:53:12;;;;;;;25.52;13.70;;;14.30;99.90;;;;;;5040749;28;20519;-54
2021/08/31 05:55:38;;;;;;;25.13;13.63;;;14.40;99.90;;;;;;5045147;28;20029;-52
2021/08/31 05:58:04;;;;;;;27.30;13.35;;;14.40;99.90;;;;;;5022104;28;20041;-52
2021/08/31 06:00:30;;;;;;;28.45;13.85;;;14.40;99.90;;;;;;5042482;28;20056;-53
2021/08/31 06:02:55;;;;;;;26.77;13.70;;;14.40;99.90;;;;;;5042884;28;20528;-55
2021/08/31 06:05:21;;;;;;;22.52;13.63;;;14.40;99.90;;;;;;5036367;28;20033;-56
2021/08/31 06:07:47;;;;;;;24.00;13.98;;;14.50;99.90;;;;;;5034996;28;20072;-54
2021/08/31 06:10:15;;;;;;;25.13;13.93;;;14.50;99.90;;;;;;5056058;28;20044;-56
2021/08/31 06:12:41;;;;;;;26.52;14.80;;;14.60;99.90;;;;;;5028217;28;20069;-56
2021/08/31 06:15:11;;;;;;;27.95;14.18;;;14.60;99.90;;;;;;5054088;28;20044;-56
2021/08/31 06:17:38;;;;;;;24.98;13.25;;;14.70;99.90;;;;;;5038633;28;20163;-58
2021/08/31 06:20:05;;;;;;;24.48;13.75;;;14.70;99.90;;;;;;5052619;28;20512;-59
2021/08/31 06:22:31;;;;;;;26.73;13.15;;;14.70;99.90;;;;;;5052672;28;20047;-58
2021/08/31 06:24:59;;;;;;;27.25;12.90;;;14.80;99.90;;;;;;5016332;28;20041;-56
2021/08/31 06:27:24;;;;;;;32.58;14.48;;;14.80;99.90;;;;;;5040253;28;20109;-57
2021/08/31 06:29:51;;;;;;;22.30;13.93;;;14.90;99.90;;;;;;5036174;28;20112;-57
2021/08/31 06:32:17;;;;;;;20.75;13.07;;;15.00;99.90;;;;;;5042999;28;20478;-57
2021/08/31 06:34:43;;;;;;;23.08;13.43;;;15.00;99.90;;;;;;5002364;28;20073;-56
2021/08/31 06:37:08;;;;;;;24.98;13.80;;;15.10;99.90;;;;;;5038537;28;20037;-57
2021/08/31 06:39:34;;;;;;;26.67;13.32;;;15.10;99.90;;;;;;5036346;28;20087;-57
2021/08/31 06:41:59;;;;;;;27.52;14.00;;;15.10;99.90;;;;;;5034959;28;20157;-58
2021/08/31 06:44:31;;;;;;;27.40;14.07;;;15.20;99.90;;;;;;5047599;28;20133;-52
2021/08/31 06:46:57;;;;;;;30.33;14.63;;;15.20;99.90;;;;;;5052764;28;20029;-58
2021/08/31 06:49:23;;;;;;;26.88;13.52;;;15.30;99.90;;;;;;5027649;28;20124;-59
2021/08/31 06:51:51;;;;;;;26.63;13.63;;;15.40;99.90;;;;;;5033835;28;20087;-57
2021/08/31 06:54:16;;;;;;;26.63;13.55;;;15.40;99.90;;;;;;5051899;28;20037;-56
2021/08/31 06:56:42;;;;;;;23.73;13.75;;;15.50;99.90;;;;;;5054464;28;20090;-58
2021/08/31 06:59:12;;;;;;;25.00;13.32;;;15.60;99.90;;;;;;5036493;28;20048;-58
2021/08/31 07:01:37;;;;;;;30.45;13.10;;;15.60;99.90;;;;;;5055336;28;20037;-56
2021/08/31 07:04:03;;;;;;;22.77;13.93;;;15.70;99.90;;;;;;5049850;28;20047;-56
2021/08/31 07:06:29;;;;;;;24.20;11.98;;;15.80;99.90;;;;;;5056314;28;20083;-56
2021/08/31 07:08:56;;;;;;;21.88;11.45;;;15.90;99.90;;;;;;5042069;28;20063;-56
2021/08/31 07:11:22;;;;;;;20.75;11.43;;;15.90;99.90;;;;;;5017942;28;20043;-56
2021/08/31 07:13:51;;;;;;;22.15;11.68;;;16.00;99.90;;;;;;5036541;28;20041;-56
2021/08/31 07:16:16;;;;;;;22.00;11.20;;;16.10;99.90;;;;;;5032222;28;20059;-53
2021/08/31 07:18:42;;;;;;;23.42;11.32;;;16.20;99.90;;;;;;5048421;28;20416;-55
2021/08/31 07:21:07;;;;;;;24.70;11.10;;;16.20;99.90;;;;;;5035973;28;20037;-55
2021/08/31 07:23:33;;;;;;;23.05;10.75;;;16.30;99.90;;;;;;5041083;28;20037;-57
2021/08/31 07:26:03;;;;;;;24.08;10.82;;;16.40;99.90;;;;;;5039122;28;20628;-53
2021/08/31 07:28:29;;;;;;;25.17;10.57;;;16.40;99.90;;;;;;5026791;28;20052;-56
2021/08/31 07:30:58;;;;;;;20.52;10.35;;;16.50;99.90;;;;;;5039784;28;20043;-55
2021/08/31 07:33:28;;;;;;;21.08;10.38;;;16.60;99.90;;;;;;5054771;28;20064;-56
2021/08/31 07:35:53;;;;;;;19.13;9.80;;;16.60;99.90;;;;;;5043465;28;20520;-55
2021/08/31 07:38:19;;;;;;;25.40;10.02;;;16.70;99.90;;;;;;5029425;28;20413;-56
2021/08/31 07:40:44;;;;;;;19.48;10.10;;;16.80;99.90;;;;;;5047311;28;20037;-56
2021/08/31 07:43:10;;;;;;;17.33;9.18;;;16.90;99.90;;;;;;5051374;28;20044;-56
2021/08/31 07:45:36;;;;;;;18.30;9.35;;;17.00;99.90;;;;;;5048801;28;20043;-57
2021/08/31 07:48:01;;;;;;;21.63;9.18;;;17.00;99.50;;;;;;5051812;28;20444;-58
2021/08/31 07:50:27;;;;;;;20.30;8.43;;;17.00;99.30;;;;;;5033383;28;20534;-58
2021/08/31 07:52:53;;;;;;;23.67;8.75;;;17.10;98.50;;;;;;5053116;28;20083;-56
2021/08/31 07:55:20;;;;;;;16.58;8.73;;;17.10;98.00;;;;;;5036432;28;20042;-58
2021/08/31 07:57:47;;;;;;;16.90;8.30;;;17.00;98.20;;;;;;5038508;28;20045;-58
2021/08/31 08:00:16;;;;;;;15.98;8.35;;;17.10;98.00;;;;;;5011459;28;20090;-57
2021/08/31 08:02:42;;;;;;;17.00;8.13;;;17.30;98.10;;;;;;5021116;28;20487;-57
2021/08/31 08:05:09;;;;;;;18.63;8.10;;;17.40;98.10;;;;;;5043338;28;20041;-57
2021/08/31 08:07:35;;;;;;;19.83;7.35;;;17.60;97.90;;;;;;5011561;28;20037;-57
2021/08/31 08:10:01;;;;;;;14.43;7.88;;;17.60;97.00;;;;;;5048384;28;20116;-58
2021/08/31 08:12:27;;;;;;;18.00;7.75;;;17.60;96.60;;;;;;5051872;28;20037;-58
2021/08/31 08:14:53;;;;;;;18.92;8.23;;;17.50;96.70;;;;;;5053913;28;20045;-57
2021/08/31 08:17:20;;;;;;;16.33;7.78;;;17.40;96.80;;;;;;5050675;28;20116;-58
2021/08/31 08:19:46;;;;;;;13.07;7.25;;;17.40;96.90;;;;;;5042395;28;20508;-58
2021/08/31 08:22:13;;;;;;;16.15;7.60;;;17.40;96.80;;;;;;5053892;28;20433;-58
2021/08/31 08:24:39;;;;;;;14.32;7.65;;;17.70;95.60;;;;;;5050413;28;20041;-57
2021/08/31 08:27:06;;;;;;;15.10;7.07;;;17.70;95.70;;;;;;5038306;28;20128;-56
2021/08/31 08:29:37;;;;;;;14.52;7.07;;;17.80;95.00;;;;;;5034584;28;20041;-56
2021/08/31 08:32:07;;;;;;;16.80;6.97;;;17.80;94.20;;;;;;5044799;28;20041;-54
2021/08/31 08:34:33;;;;;;;16.05;6.82;;;17.90;94.30;;;;;;5040747;28;20107;-55
2021/08/31 08:37:07;;;;;;;13.88;6.85;;;17.90;94.30;;;;;;5043610;28;20049;-57
2021/08/31 08:39:34;;;;;;;16.75;7.18;;;17.90;94.40;;;;;;5006764;28;20037;-58
2021/08/31 08:42:00;;;;;;;12.20;6.80;;;17.80;94.10;;;;;;5041458;28;20053;-55
2021/08/31 08:44:27;;;;;;;13.05;6.70;;;17.80;93.70;;;;;;5046150;28;20037;-56
2021/08/31 08:46:52;;;;;;;13.68;6.05;;;17.90;93.80;;;;;;5046630;28;20045;-55
2021/08/31 08:49:18;;;;;;;12.20;6.10;;;18.00;93.10;;;;;;5037478;28;20059;-55
2021/08/31 08:51:44;;;;;;;14.75;6.90;;;18.10;92.90;;;;;;5052997;28;20091;-56
2021/08/31 08:54:10;;;;;;;16.20;7.18;;;18.20;93.30;;;;;;5033243;28;20052;-55
2021/08/31 08:56:36;;;;;;;15.30;6.78;;;18.30;93.50;;;;;;5039473;28;20029;-56
2021/08/31 08:59:01;;;;;;;11.38;6.20;;;18.60;92.40;;;;;;5054075;28;20039;-57
2021/08/31 09:01:44;;;;;;;14.95;6.07;;;18.70;91.10;;;;;;5043157;28;20162;-55
2021/08/31 09:04:11;;;;;;;15.00;6.95;;;18.70;91.20;;;;;;5041914;28;20033;-56
2021/08/31 09:06:37;;;;;;;14.55;6.50;;;18.60;91.90;;;;;;5030252;28;20033;-56
2021/08/31 09:09:05;;;;;;;15.38;6.90;;;18.60;92.10;;;;;;5021359;28;20769;-56
2021/08/31 09:11:39;;;;;;;15.30;7.15;;;18.60;92.30;;;;;;5042351;28;20033;-56
2021/08/31 09:14:16;;;;;;;11.70;6.90;;;18.70;92.50;;;;;;5045888;28;20045;-57
2021/08/31 09:16:44;;;;;;;12.05;7.07;;;18.60;92.50;;;;;;5041338;28;20044;-60
2021/08/31 09:19:11;;;;;;;15.43;6.40;;;18.50;92.60;;;;;;5003685;28;20041;-58
2021/08/31 09:21:38;;;;;;;10.80;6.72;;;18.50;92.20;;;;;;5045965;28;20493;-59
2021/08/31 09:24:04;;;;;;;16.20;6.53;;;18.60;91.90;;;;;;5034987;28;20048;-58
2021/08/31 09:26:45;;;;;;;12.68;5.47;;;18.50;92.00;;;;;;5052648;28;20048;-58
2021/08/31 09:29:23;;;;;;;10.15;5.93;;;18.50;91.80;;;;;;5053848;28;20041;-58
2021/08/31 09:31:55;;;;;;;13.68;5.50;;;18.40;91.80;;;;;;5033505;28;20048;-58
2021/08/31 09:34:39;;;;;;;10.32;6.10;;;18.60;90.10;;;;;;5043142;28;20049;-56
2021/08/31 09:37:26;;;;;;;10.38;5.43;;;18.70;90.80;;;;;;5052433;28;20044;-55
2021/08/31 09:40:12;;;;;;;14.55;5.78;;;18.80;90.30;;;;;;5035271;28;20029;-54
2021/08/31 09:45:20;;;;;;;10.95;5.22;;;19.00;90.10;;;;;;5735660;23;20405;-61
2021/08/31 09:47:46;;;;;;;14.32;5.20;;;19.20;87.90;;;;;;5001009;28;20042;-59
2021/08/31 09:50:32;;;;;;;14.30;5.70;;;19.20;89.20;;;;;;5009688;28;20498;-59
2021/08/31 09:53:03;;;;;;;13.60;5.43;;;19.30;87.80;;;;;;5012644;28;20045;-58
2021/08/31 09:55:28;;;;;;;11.82;4.53;;;19.50;86.30;;;;;;5006771;28;20057;-59
2021/08/31 09:58:13;;;;;;;13.20;4.82;;;19.60;87.30;;;;;;5001665;28;20038;-60
2021/08/31 10:00:41;;;;;;;13.95;4.85;;;19.70;87.40;;;;;;5010877;28;20042;-58
2021/08/31 10:03:07;;;;;;;16.73;4.47;;;19.90;87.00;;;;;;5008618;28;20053;-57
2021/08/31 10:05:36;;;;;;;15.55;5.30;;;20.00;85.50;;;;;;5004546;28;20441;-59
2021/08/31 10:08:03;;;;;;;10.80;4.57;;;20.00;86.30;;;;;;5012050;28;20034;-59
2021/08/31 10:10:30;;;;;;;10.30;4.50;;;20.10;84.20;;;;;;5008558;28;20038;-60
2021/08/31 10:13:00;;;;;;;14.73;4.55;;;20.20;82.90;;;;;;5008361;28;20506;-59
2021/08/31 10:15:26;;;;;;;13.02;4.93;;;20.20;82.10;;;;;;5002545;28;20046;-59
2021/08/31 10:17:52;;;;;;;12.77;4.97;;;20.20;81.70;;;;;;5011672;28;20045;-58
2021/08/31 10:20:24;;;;;;;9.85;4.70;;;20.10;82.10;;;;;;5010060;28;20037;-58
2021/08/31 10:22:50;;;;;;;8.60;4.50;;;20.10;82.70;;;;;;5011573;28;20054;-58
2021/08/31 10:25:21;;;;;;;8.88;4.57;;;20.20;80.70;;;;;;5011934;28;20042;-58
2021/08/31 10:27:47;;;;;;;12.82;4.55;;;20.40;79.70;;;;;;5011956;28;20037;-58
2021/08/31 10:30:13;;;;;;;13.57;5.35;;;20.50;82.40;;;;;;5011528;28;20040;-59
2021/08/31 10:32:39;;;;;;;13.25;5.55;;;20.60;78.70;;;;;;5011489;28;20519;-58
2021/08/31 10:35:05;;;;;;;10.77;4.88;;;20.60;81.00;;;;;;5011434;28;20124;-59
2021/08/31 10:37:45;;;;;;;13.27;5.15;;;20.60;82.20;;;;;;5004095;28;20038;-59
2021/08/31 10:40:29;;;;;;;11.93;4.45;;;20.50;82.90;;;;;;5011674;28;20375;-58
2021/08/31 10:42:55;;;;;;;14.35;4.93;;;20.30;83.70;;;;;;5010887;28;20045;-58
2021/08/31 10:45:35;;;;;;;10.43;4.70;;;20.20;83.70;;;;;;5004510;28;20049;-58
2021/08/31 10:48:23;;;;;;;11.10;4.93;;;20.20;83.70;;;;;;4999454;28;20526;-58
2021/08/31 10:50:51;;;;;;;9.57;4.32;;;20.20;84.00;;;;;;5000509;28;20041;-59
2021/08/31 10:53:44;;;;;;;11.63;4.40;;;20.30;84.10;;;;;;5011058;28;20497;-57
2021/08/31 10:56:26;;;;;;;13.02;5.32;;;20.30;82.90;;;;;;5007542;28;20053;-58
2021/08/31 10:58:59;;;;;;;10.73;4.57;;;20.40;79.70;;;;;;5011345;28;20048;-57
2021/08/31 11:01:44;;;;;;;13.68;4.88;;;20.20;80.70;;;;;;5011054;28;20041;-57
2021/08/31 11:04:30;;;;;;;13.40;5.00;;;20.20;82.10;;;;;;5010978;28;20058;-59
2021/08/31 11:07:00;;;;;;;13.50;4.95;;;20.20;82.50;;;;;;5010502;28;20460;-60
2021/08/31 11:09:27;;;;;;;12.25;4.95;;;20.20;82.80;;;;;;5011189;28;20041;-58
2021/08/31 11:12:27;;;;;;;11.43;4.75;;;20.40;80.90;;;;;;5010894;28;20045;-59
2021/08/31 11:14:55;;;;;;;16.17;4.75;;;20.60;76.60;;;;;;4984527;28;20060;-58
2021/08/31 11:17:40;;;;;;;16.80;4.78;;;20.60;78.40;;;;;;5010862;28;20124;-60
2021/08/31 11:20:23;;;;;;;14.25;5.60;;;20.60;79.30;;;;;;5005016;28;20045;-58
2021/08/31 11:22:52;;;;;;;11.55;4.45;;;20.70;80.60;;;;;;5010886;28;20116;-59
2021/08/31 11:25:29;;;;;;;15.10;5.05;;;20.80;80.00;;;;;;5010758;28;20030;-57
2021/08/31 11:28:00;;;;;;;13.10;4.70;;;20.80;78.10;;;;;;4991540;28;20462;-58
2021/08/31 11:30:27;;;;;;;13.10;4.70;;;20.70;79.10;;;;;;4993294;28;20046;-59
2021/08/31 11:33:38;;;;;;;12.77;4.72;;;20.60;80.90;;;;;;5009251;28;20304;-58
2021/08/31 11:36:12;;;;;;;13.73;4.53;;;20.80;78.90;;;;;;4906533;29;20049;-58
2021/08/31 11:38:39;;;;;;;13.18;4.63;;;20.70;78.40;;;;;;4911280;29;20040;-59
2021/08/31 11:41:30;;;;;;;12.85;4.68;;;20.80;75.40;;;;;;4967908;28;20053;-59
2021/08/31 11:44:05;;;;;;;12.88;4.75;;;20.70;78.70;;;;;;5011269;28;20049;-59
2021/08/31 11:46:33;;;;;;;14.10;4.07;;;20.70;79.30;;;;;;4979685;28;20081;-59
2021/08/31 11:49:12;;;;;;;12.18;4.32;;;20.70;78.40;;;;;;5002376;28;20512;-59
2021/08/31 11:51:39;;;;;;;12.13;4.40;;;20.60;76.60;;;;;;4983587;28;20042;-60
2021/08/31 11:54:12;;;;;;;12.85;4.85;;;20.60;79.20;;;;;;5014701;28;20371;-60
2021/08/31 11:56:39;;;;;;;10.45;4.28;;;20.60;78.50;;;;;;4997263;28;20034;-60
2021/08/31 11:59:05;;;;;;;14.80;4.70;;;20.60;78.90;;;;;;5013106;28;20489;-60
2021/08/31 12:01:35;;;;;;;14.63;4.55;;;20.70;79.70;;;;;;5000640;28;20048;-58
2021/08/31 12:04:21;;;;;;;12.07;4.78;;;20.80;77.80;;;;;;4986830;28;20050;-60
2021/08/31 12:06:54;;;;;;;9.68;4.43;;;20.80;76.70;;;;;;5013626;28;20073;-57
2021/08/31 12:09:22;;;;;;;13.63;4.80;;;20.90;79.70;;;;;;5014434;28;20399;-57
2021/08/31 12:11:48;;;;;;;15.65;5.05;;;20.70;79.60;;;;;;5008320;28;20037;-56
2021/08/31 12:14:18;;;;;;;17.52;4.95;;;20.60;79.30;;;;;;5014017;28;20046;-56
2021/08/31 12:16:45;;;;;;;13.40;4.95;;;20.60;80.50;;;;;;5014253;28;20108;-58
2021/08/31 12:19:19;;;;;;;13.95;4.70;;;20.70;81.10;;;;;;5008852;28;20038;-58
2021/08/31 12:22:07;;;;;;;13.27;4.82;;;20.80;81.60;;;;;;5014418;28;20038;-60
2021/08/31 12:24:35;;;;;;;17.30;5.43;;;20.70;79.60;;;;;;5000734;28;20054;-61
2021/08/31 12:27:13;;;;;;;12.90;4.25;;;20.60;80.20;;;;;;5001870;28;20453;-60
2021/08/31 12:29:55;;;;;;;13.10;4.88;;;20.60;81.00;;;;;;5008628;28;20040;-57
2021/08/31 12:32:26;;;;;;;13.65;4.72;;;20.70;80.00;;;;;;4999631;28;20050;-56
2021/08/31 12:34:53;;;;;;;10.73;4.00;;;20.80;81.00;;;;;;5001999;28;20038;-56
2021/08/31 12:37:34;;;;;;;11.20;4.07;;;20.70;80.90;;;;;;4982817;28;20553;-58
2021/08/31 12:40:18;;;;;;;13.45;4.88;;;20.60;80.70;;;;;;5011211;28;20053;-56